sensor_id;sensor_type;location;lat;lon;timestamp;P1;durP1;ratioP1;P2;durP2;ratioP2
1122;SDS011;548;48.778;9.252;2023-08-31T00:00:48;38.60;;;36.60;;
1122;SDS011;548;48.778;9.252;2023-08-31T00:03:16;39.23;;;37.03;;
1122;SDS011;548;48.778;9.252;2023-08-31T00:05:44;38.07;;;36.07;;
1122;SDS011;548;48.778;9.252;2023-08-31T00:08:11;38.53;;;36.53;;
1122;SDS011;548;48.778;9.252;2023-08-31T00:10:38;38.13;;;36.03;;
1122;SDS011;548;48.778;9.252;2023-08-31T00:13:05;36.10;;;34.10;;
1122;SDS011;548;48.778;9.252;2023-08-31T00:15:34;36.63;;;34.60;;
1122;SDS011;548;48.778;9.252;2023-08-31T00:18:00;36.13;;;33.93;;
1122;SDS011;548;48.778;9.252;2023-08-31T00:20:28;38.77;;;36.67;;
1122;SDS011;548;48.778;9.252;2023-08-31T00:22:56;37.20;;;35.20;;
1122;SDS011;548;48.778;9.252;2023-08-31T00:25:23;37.53;;;35.43;;
1122;SDS011;548;48.778;9.252;2023-08-31T00:27:50;36.60;;;34.50;;
1122;SDS011;548;48.778;9.252;2023-08-31T00:30:18;37.13;;;35.20;;
1122;SDS011;548;48.778;9.252;2023-08-31T00:32:46;38.03;;;36.00;;
1122;SDS011;548;48.778;9.252;2023-08-31T00:35:13;36.97;;;35.07;;
1122;SDS011;548;48.778;9.252;2023-08-31T00:37:40;39.10;;;36.57;;
1122;SDS011;548;48.778;9.252;2023-08-31T00:40:07;38.20;;;36.20;;
1122;SDS011;548;48.778;9.252;2023-08-31T00:42:34;38.53;;;36.63;;
1122;SDS011;548;48.778;9.252;2023-08-31T00:45:02;36.77;;;34.77;;
1122;SDS011;548;48.778;9.252;2023-08-31T00:47:30;37.13;;;34.97;;
1122;SDS011;548;48.778;9.252;2023-08-31T00:49:59;34.17;;;32.37;;
1122;SDS011;548;48.778;9.252;2023-08-31T00:52:26;33.50;;;31.70;;
1122;SDS011;548;48.778;9.252;2023-08-31T00:54:53;32.17;;;30.47;;
1122;SDS011;548;48.778;9.252;2023-08-31T00:57:20;30.50;;;28.73;;
1122;SDS011;548;48.778;9.252;2023-08-31T00:59:47;31.30;;;29.57;;
1122;SDS011;548;48.778;9.252;2023-08-31T01:02:15;30.37;;;28.57;;
1122;SDS011;548;48.778;9.252;2023-08-31T01:04:47;31.57;;;29.67;;
1122;SDS011;548;48.778;9.252;2023-08-31T01:07:21;29.23;;;27.83;;
1122;SDS011;548;48.778;9.252;2023-08-31T01:09:57;31.50;;;29.80;;
1122;SDS011;548;48.778;9.252;2023-08-31T01:12:28;31.33;;;29.73;;
1122;SDS011;548;48.778;9.252;2023-08-31T01:15:02;28.70;;;27.30;;
1122;SDS011;548;48.778;9.252;2023-08-31T01:17:32;28.23;;;26.70;;
1122;SDS011;548;48.778;9.252;2023-08-31T01:20:04;30.20;;;28.50;;
1122;SDS011;548;48.778;9.252;2023-08-31T01:22:37;30.70;;;28.87;;
1122;SDS011;548;48.778;9.252;2023-08-31T01:25:07;28.97;;;27.30;;
1122;SDS011;548;48.778;9.252;2023-08-31T01:27:35;27.30;;;25.87;;
1122;SDS011;548;48.778;9.252;2023-08-31T01:30:03;28.57;;;26.70;;
1122;SDS011;548;48.778;9.252;2023-08-31T01:32:31;28.60;;;27.07;;
1122;SDS011;548;48.778;9.252;2023-08-31T01:34:58;31.17;;;29.07;;
1122;SDS011;548;48.778;9.252;2023-08-31T01:37:29;26.50;;;25.20;;
1122;SDS011;548;48.778;9.252;2023-08-31T01:40:02;28.43;;;26.40;;
1122;SDS011;548;48.778;9.252;2023-08-31T01:42:34;28.27;;;26.60;;
1122;SDS011;548;48.778;9.252;2023-08-31T01:45:01;26.10;;;24.80;;
1122;SDS011;548;48.778;9.252;2023-08-31T01:47:29;25.37;;;24.00;;
1122;SDS011;548;48.778;9.252;2023-08-31T01:49:57;26.00;;;24.60;;
1122;SDS011;548;48.778;9.252;2023-08-31T01:52:24;26.53;;;25.23;;
1122;SDS011;548;48.778;9.252;2023-08-31T01:54:51;27.47;;;25.40;;
1122;SDS011;548;48.778;9.252;2023-08-31T01:57:17;26.10;;;24.50;;
1122;SDS011;548;48.778;9.252;2023-08-31T01:59:45;25.20;;;24.00;;
1122;SDS011;548;48.778;9.252;2023-08-31T02:02:12;24.30;;;23.20;;
1122;SDS011;548;48.778;9.252;2023-08-31T02:04:39;23.37;;;22.37;;
1122;SDS011;548;48.778;9.252;2023-08-31T02:07:06;22.60;;;21.60;;
1122;SDS011;548;48.778;9.252;2023-08-31T02:09:32;21.00;;;20.10;;
1122;SDS011;548;48.778;9.252;2023-08-31T02:11:59;20.83;;;19.93;;
1122;SDS011;548;48.778;9.252;2023-08-31T02:14:26;19.90;;;18.90;;
1122;SDS011;548;48.778;9.252;2023-08-31T02:16:54;18.97;;;18.17;;
1122;SDS011;548;48.778;9.252;2023-08-31T02:19:21;19.00;;;17.60;;
1122;SDS011;548;48.778;9.252;2023-08-31T02:21:47;17.83;;;16.93;;
1122;SDS011;548;48.778;9.252;2023-08-31T02:24:14;18.13;;;17.20;;
1122;SDS011;548;48.778;9.252;2023-08-31T02:26:40;18.10;;;17.30;;
1122;SDS011;548;48.778;9.252;2023-08-31T02:29:07;19.23;;;18.30;;
1122;SDS011;548;48.778;9.252;2023-08-31T02:31:34;17.40;;;16.70;;
1122;SDS011;548;48.778;9.252;2023-08-31T02:34:03;16.93;;;16.33;;
1122;SDS011;548;48.778;9.252;2023-08-31T02:36:30;17.90;;;16.90;;
1122;SDS011;548;48.778;9.252;2023-08-31T02:38:57;17.23;;;16.53;;
1122;SDS011;548;48.778;9.252;2023-08-31T02:41:23;17.13;;;16.43;;
1122;SDS011;548;48.778;9.252;2023-08-31T02:43:50;17.70;;;17.00;;
1122;SDS011;548;48.778;9.252;2023-08-31T02:46:17;17.40;;;16.70;;
1122;SDS011;548;48.778;9.252;2023-08-31T02:48:44;17.33;;;16.50;;
1122;SDS011;548;48.778;9.252;2023-08-31T02:51:12;18.00;;;17.20;;
1122;SDS011;548;48.778;9.252;2023-08-31T02:53:39;16.77;;;16.00;;
1122;SDS011;548;48.778;9.252;2023-08-31T02:56:05;17.53;;;16.40;;
1122;SDS011;548;48.778;9.252;2023-08-31T02:58:32;17.80;;;17.10;;
1122;SDS011;548;48.778;9.252;2023-08-31T03:01:08;17.83;;;17.03;;
1122;SDS011;548;48.778;9.252;2023-08-31T03:03:36;18.03;;;17.33;;
1122;SDS011;548;48.778;9.252;2023-08-31T03:06:03;16.37;;;15.57;;
1122;SDS011;548;48.778;9.252;2023-08-31T03:08:33;16.37;;;15.67;;
1122;SDS011;548;48.778;9.252;2023-08-31T03:10:59;16.83;;;16.23;;
1122;SDS011;548;48.778;9.252;2023-08-31T03:13:26;16.33;;;15.53;;
1122;SDS011;548;48.778;9.252;2023-08-31T03:15:53;17.17;;;16.47;;
1122;SDS011;548;48.778;9.252;2023-08-31T03:18:21;16.80;;;16.10;;
1122;SDS011;548;48.778;9.252;2023-08-31T03:20:48;16.60;;;15.90;;
1122;SDS011;548;48.778;9.252;2023-08-31T03:23:15;19.03;;;17.90;;
1122;SDS011;548;48.778;9.252;2023-08-31T03:25:43;17.37;;;16.57;;
1122;SDS011;548;48.778;9.252;2023-08-31T03:28:10;17.50;;;16.80;;
1122;SDS011;548;48.778;9.252;2023-08-31T03:30:36;16.93;;;16.23;;
1122;SDS011;548;48.778;9.252;2023-08-31T03:33:03;18.00;;;17.10;;
1122;SDS011;548;48.778;9.252;2023-08-31T03:35:31;17.83;;;17.13;;
1122;SDS011;548;48.778;9.252;2023-08-31T03:37:58;17.10;;;16.30;;
1122;SDS011;548;48.778;9.252;2023-08-31T03:40:25;16.50;;;15.70;;
1122;SDS011;548;48.778;9.252;2023-08-31T03:42:53;18.40;;;17.53;;
1122;SDS011;548;48.778;9.252;2023-08-31T03:45:20;18.90;;;17.83;;
1122;SDS011;548;48.778;9.252;2023-08-31T03:47:47;17.90;;;17.10;;
1122;SDS011;548;48.778;9.252;2023-08-31T03:50:13;17.47;;;16.77;;
1122;SDS011;548;48.778;9.252;2023-08-31T03:52:40;16.80;;;16.10;;
1122;SDS011;548;48.778;9.252;2023-08-31T03:55:07;17.80;;;17.00;;
1122;SDS011;548;48.778;9.252;2023-08-31T03:57:34;19.20;;;18.30;;
1122;SDS011;548;48.778;9.252;2023-08-31T04:00:02;16.90;;;16.17;;
1122;SDS011;548;48.778;9.252;2023-08-31T04:02:33;18.03;;;17.20;;
1122;SDS011;548;48.778;9.252;2023-08-31T04:05:00;18.10;;;17.30;;
1122;SDS011;548;48.778;9.252;2023-08-31T04:07:30;17.50;;;16.60;;
1122;SDS011;548;48.778;9.252;2023-08-31T04:09:57;17.00;;;16.20;;
1122;SDS011;548;48.778;9.252;2023-08-31T04:12:23;17.70;;;16.57;;
1122;SDS011;548;48.778;9.252;2023-08-31T04:14:50;19.20;;;18.27;;
1122;SDS011;548;48.778;9.252;2023-08-31T04:17:18;18.63;;;17.73;;
1122;SDS011;548;48.778;9.252;2023-08-31T04:19:45;18.67;;;17.77;;
1122;SDS011;548;48.778;9.252;2023-08-31T04:22:12;18.00;;;17.00;;
1122;SDS011;548;48.778;9.252;2023-08-31T04:24:38;18.63;;;17.70;;
1122;SDS011;548;48.778;9.252;2023-08-31T04:27:05;18.43;;;17.63;;
1122;SDS011;548;48.778;9.252;2023-08-31T04:29:33;18.83;;;17.97;;
1122;SDS011;548;48.778;9.252;2023-08-31T04:32:00;19.37;;;18.27;;
1122;SDS011;548;48.778;9.252;2023-08-31T04:34:28;19.80;;;18.90;;
1122;SDS011;548;48.778;9.252;2023-08-31T04:36:54;20.67;;;19.13;;
1122;SDS011;548;48.778;9.252;2023-08-31T04:39:21;18.20;;;17.50;;
1122;SDS011;548;48.778;9.252;2023-08-31T04:41:48;17.80;;;17.10;;
1122;SDS011;548;48.778;9.252;2023-08-31T04:44:14;19.00;;;18.10;;
1122;SDS011;548;48.778;9.252;2023-08-31T04:46:42;19.30;;;18.50;;
1122;SDS011;548;48.778;9.252;2023-08-31T04:49:08;19.77;;;18.73;;
1122;SDS011;548;48.778;9.252;2023-08-31T04:51:36;20.00;;;18.90;;
1122;SDS011;548;48.778;9.252;2023-08-31T04:54:04;19.00;;;18.10;;
1122;SDS011;548;48.778;9.252;2023-08-31T04:56:32;19.07;;;18.10;;
1122;SDS011;548;48.778;9.252;2023-08-31T04:58:59;19.80;;;18.77;;
1122;SDS011;548;48.778;9.252;2023-08-31T05:01:27;19.60;;;18.60;;
1122;SDS011;548;48.778;9.252;2023-08-31T05:03:54;18.77;;;17.83;;
1122;SDS011;548;48.778;9.252;2023-08-31T05:06:21;17.87;;;17.07;;
1122;SDS011;548;48.778;9.252;2023-08-31T05:08:49;18.37;;;17.60;;
1122;SDS011;548;48.778;9.252;2023-08-31T05:11:16;18.37;;;17.57;;
1122;SDS011;548;48.778;9.252;2023-08-31T05:13:42;20.10;;;19.00;;
1122;SDS011;548;48.778;9.252;2023-08-31T05:16:09;19.97;;;17.90;;
1122;SDS011;548;48.778;9.252;2023-08-31T05:18:36;19.30;;;18.30;;
1122;SDS011;548;48.778;9.252;2023-08-31T05:21:03;19.33;;;18.10;;
1122;SDS011;548;48.778;9.252;2023-08-31T05:23:30;19.20;;;18.40;;
1122;SDS011;548;48.778;9.252;2023-08-31T05:25:58;19.20;;;18.23;;
1122;SDS011;548;48.778;9.252;2023-08-31T05:28:26;17.77;;;16.87;;
1122;SDS011;548;48.778;9.252;2023-08-31T05:30:54;18.20;;;17.30;;
1122;SDS011;548;48.778;9.252;2023-08-31T05:33:22;18.60;;;17.70;;
1122;SDS011;548;48.778;9.252;2023-08-31T05:35:50;18.80;;;17.87;;
1122;SDS011;548;48.778;9.252;2023-08-31T05:38:17;18.17;;;17.17;;
1122;SDS011;548;48.778;9.252;2023-08-31T05:40:43;17.17;;;16.47;;
1122;SDS011;548;48.778;9.252;2023-08-31T05:43:12;18.67;;;17.67;;
1122;SDS011;548;48.778;9.252;2023-08-31T05:45:39;17.43;;;16.73;;
1122;SDS011;548;48.778;9.252;2023-08-31T05:48:06;17.90;;;17.10;;
1122;SDS011;548;48.778;9.252;2023-08-31T05:50:34;18.50;;;17.53;;
1122;SDS011;548;48.778;9.252;2023-08-31T05:53:01;17.43;;;16.73;;
1122;SDS011;548;48.778;9.252;2023-08-31T05:55:28;18.17;;;17.03;;
1122;SDS011;548;48.778;9.252;2023-08-31T05:57:55;17.67;;;16.60;;
1122;SDS011;548;48.778;9.252;2023-08-31T06:00:23;17.93;;;17.00;;
1122;SDS011;548;48.778;9.252;2023-08-31T06:02:50;16.50;;;15.80;;
1122;SDS011;548;48.778;9.252;2023-08-31T06:05:16;18.17;;;17.37;;
1122;SDS011;548;48.778;9.252;2023-08-31T06:07:43;17.20;;;16.50;;
1122;SDS011;548;48.778;9.252;2023-08-31T06:10:10;17.40;;;16.53;;
1122;SDS011;548;48.778;9.252;2023-08-31T06:12:38;16.87;;;15.67;;
1122;SDS011;548;48.778;9.252;2023-08-31T06:15:05;17.23;;;16.33;;
1122;SDS011;548;48.778;9.252;2023-08-31T06:17:33;17.10;;;16.20;;
1122;SDS011;548;48.778;9.252;2023-08-31T06:20:01;16.63;;;15.93;;
1122;SDS011;548;48.778;9.252;2023-08-31T06:22:30;16.70;;;15.80;;
1122;SDS011;548;48.778;9.252;2023-08-31T06:24:57;15.73;;;15.13;;
1122;SDS011;548;48.778;9.252;2023-08-31T06:27:23;16.10;;;15.50;;
1122;SDS011;548;48.778;9.252;2023-08-31T06:29:50;16.13;;;15.43;;
1122;SDS011;548;48.778;9.252;2023-08-31T06:32:16;15.80;;;15.10;;
1122;SDS011;548;48.778;9.252;2023-08-31T06:34:45;17.50;;;16.67;;
1122;SDS011;548;48.778;9.252;2023-08-31T06:37:12;17.97;;;17.00;;
1122;SDS011;548;48.778;9.252;2023-08-31T06:39:38;16.90;;;16.03;;
1122;SDS011;548;48.778;9.252;2023-08-31T06:42:06;16.40;;;15.60;;
1122;SDS011;548;48.778;9.252;2023-08-31T06:44:32;16.83;;;16.03;;
1122;SDS011;548;48.778;9.252;2023-08-31T06:46:59;16.47;;;15.77;;
1122;SDS011;548;48.778;9.252;2023-08-31T06:49:26;17.93;;;16.70;;
1122;SDS011;548;48.778;9.252;2023-08-31T06:51:54;16.00;;;15.10;;
1122;SDS011;548;48.778;9.252;2023-08-31T06:54:21;16.70;;;15.70;;
1122;SDS011;548;48.778;9.252;2023-08-31T06:56:48;15.93;;;15.10;;
1122;SDS011;548;48.778;9.252;2023-08-31T06:59:14;16.50;;;15.47;;
1122;SDS011;548;48.778;9.252;2023-08-31T07:01:41;15.60;;;14.60;;
1122;SDS011;548;48.778;9.252;2023-08-31T07:04:07;15.13;;;14.13;;
1122;SDS011;548;48.778;9.252;2023-08-31T07:06:34;16.57;;;15.57;;
1122;SDS011;548;48.778;9.252;2023-08-31T07:09:03;16.60;;;15.40;;
1122;SDS011;548;48.778;9.252;2023-08-31T07:11:31;15.63;;;13.47;;
1122;SDS011;548;48.778;9.252;2023-08-31T07:13:57;16.17;;;15.03;;
1122;SDS011;548;48.778;9.252;2023-08-31T07:16:24;15.60;;;14.70;;
1122;SDS011;548;48.778;9.252;2023-08-31T07:18:51;14.27;;;13.67;;
1122;SDS011;548;48.778;9.252;2023-08-31T07:21:18;14.37;;;13.40;;
1122;SDS011;548;48.778;9.252;2023-08-31T07:23:44;15.23;;;14.07;;
1122;SDS011;548;48.778;9.252;2023-08-31T07:26:12;14.70;;;13.63;;
1122;SDS011;548;48.778;9.252;2023-08-31T07:28:41;13.23;;;12.73;;
1122;SDS011;548;48.778;9.252;2023-08-31T07:31:07;13.93;;;13.23;;
1122;SDS011;548;48.778;9.252;2023-08-31T07:33:34;13.97;;;13.30;;
1122;SDS011;548;48.778;9.252;2023-08-31T07:36:01;14.80;;;13.70;;
1122;SDS011;548;48.778;9.252;2023-08-31T07:38:29;12.20;;;11.70;;
1122;SDS011;548;48.778;9.252;2023-08-31T07:40:57;13.30;;;12.50;;
1122;SDS011;548;48.778;9.252;2023-08-31T07:43:25;14.57;;;13.83;;
1122;SDS011;548;48.778;9.252;2023-08-31T07:45:52;13.97;;;13.17;;
1122;SDS011;548;48.778;9.252;2023-08-31T07:48:19;13.00;;;12.13;;
1122;SDS011;548;48.778;9.252;2023-08-31T07:50:45;11.97;;;11.37;;
1122;SDS011;548;48.778;9.252;2023-08-31T07:53:13;13.13;;;12.53;;
1122;SDS011;548;48.778;9.252;2023-08-31T07:55:42;13.10;;;12.50;;
1122;SDS011;548;48.778;9.252;2023-08-31T07:58:17;14.03;;;13.33;;
1122;SDS011;548;48.778;9.252;2023-08-31T08:00:45;13.20;;;12.50;;
1122;SDS011;548;48.778;9.252;2023-08-31T08:03:12;12.70;;;12.10;;
1122;SDS011;548;48.778;9.252;2023-08-31T08:05:39;15.47;;;14.60;;
1122;SDS011;548;48.778;9.252;2023-08-31T08:08:06;13.23;;;12.73;;
1122;SDS011;548;48.778;9.252;2023-08-31T08:10:33;13.83;;;13.13;;
1122;SDS011;548;48.778;9.252;2023-08-31T08:12:59;13.30;;;12.70;;
1122;SDS011;548;48.778;9.252;2023-08-31T08:15:26;13.43;;;12.73;;
1122;SDS011;548;48.778;9.252;2023-08-31T08:17:54;13.60;;;12.50;;
1122;SDS011;548;48.778;9.252;2023-08-31T08:20:22;13.60;;;12.80;;
1122;SDS011;548;48.778;9.252;2023-08-31T08:22:49;12.53;;;12.03;;
1122;SDS011;548;48.778;9.252;2023-08-31T08:25:17;13.53;;;12.93;;
1122;SDS011;548;48.778;9.252;2023-08-31T08:27:45;14.00;;;13.30;;
1122;SDS011;548;48.778;9.252;2023-08-31T08:30:11;14.00;;;13.30;;
1122;SDS011;548;48.778;9.252;2023-08-31T08:32:38;13.43;;;12.73;;
1122;SDS011;548;48.778;9.252;2023-08-31T08:35:07;12.70;;;12.00;;
1122;SDS011;548;48.778;9.252;2023-08-31T08:37:34;12.60;;;12.10;;
1122;SDS011;548;48.778;9.252;2023-08-31T08:40:01;12.30;;;11.73;;
1122;SDS011;548;48.778;9.252;2023-08-31T08:42:29;12.80;;;12.20;;
1122;SDS011;548;48.778;9.252;2023-08-31T08:44:57;11.70;;;11.10;;
1122;SDS011;548;48.778;9.252;2023-08-31T08:47:24;13.47;;;12.97;;
1122;SDS011;548;48.778;9.252;2023-08-31T08:49:51;13.20;;;12.70;;
1122;SDS011;548;48.778;9.252;2023-08-31T08:52:21;12.60;;;11.70;;
1122;SDS011;548;48.778;9.252;2023-08-31T08:54:48;12.93;;;12.23;;
1122;SDS011;548;48.778;9.252;2023-08-31T08:57:16;13.40;;;12.70;;
1122;SDS011;548;48.778;9.252;2023-08-31T08:59:42;13.50;;;12.87;;
1122;SDS011;548;48.778;9.252;2023-08-31T09:02:10;12.60;;;11.83;;
1122;SDS011;548;48.778;9.252;2023-08-31T09:04:37;12.43;;;11.83;;
1122;SDS011;548;48.778;9.252;2023-08-31T09:07:04;12.30;;;11.70;;
1122;SDS011;548;48.778;9.252;2023-08-31T09:09:32;12.73;;;12.03;;
1122;SDS011;548;48.778;9.252;2023-08-31T09:12:15;12.93;;;12.43;;
1122;SDS011;548;48.778;9.252;2023-08-31T09:14:41;14.30;;;13.27;;
1122;SDS011;548;48.778;9.252;2023-08-31T09:17:08;12.63;;;12.00;;
1122;SDS011;548;48.778;9.252;2023-08-31T09:19:35;13.83;;;12.90;;
1122;SDS011;548;48.778;9.252;2023-08-31T09:22:02;13.33;;;12.53;;
1122;SDS011;548;48.778;9.252;2023-08-31T09:24:29;13.37;;;12.77;;
1122;SDS011;548;48.778;9.252;2023-08-31T09:27:07;13.63;;;12.83;;
1122;SDS011;548;48.778;9.252;2023-08-31T09:29:37;14.20;;;13.20;;
1122;SDS011;548;48.778;9.252;2023-08-31T09:32:04;12.43;;;11.93;;
1122;SDS011;548;48.778;9.252;2023-08-31T09:34:32;13.20;;;12.60;;
1122;SDS011;548;48.778;9.252;2023-08-31T09:37:03;13.03;;;12.33;;
1122;SDS011;548;48.778;9.252;2023-08-31T09:39:35;14.43;;;13.63;;
1122;SDS011;548;48.778;9.252;2023-08-31T09:42:03;13.90;;;13.20;;
1122;SDS011;548;48.778;9.252;2023-08-31T09:44:30;13.87;;;13.20;;
1122;SDS011;548;48.778;9.252;2023-08-31T09:46:57;13.87;;;13.27;;
1122;SDS011;548;48.778;9.252;2023-08-31T09:49:24;12.53;;;11.93;;
1122;SDS011;548;48.778;9.252;2023-08-31T09:51:52;13.90;;;13.20;;
1122;SDS011;548;48.778;9.252;2023-08-31T09:54:19;14.63;;;13.93;;
1122;SDS011;548;48.778;9.252;2023-08-31T09:56:48;13.00;;;12.30;;
1122;SDS011;548;48.778;9.252;2023-08-31T09:59:17;12.43;;;11.93;;
1122;SDS011;548;48.778;9.252;2023-08-31T10:01:44;13.47;;;12.87;;
1122;SDS011;548;48.778;9.252;2023-08-31T10:04:12;13.20;;;12.70;;
1122;SDS011;548;48.778;9.252;2023-08-31T10:06:39;14.93;;;14.10;;
1122;SDS011;548;48.778;9.252;2023-08-31T10:09:06;14.47;;;13.87;;
1122;SDS011;548;48.778;9.252;2023-08-31T10:11:35;12.83;;;12.33;;
1122;SDS011;548;48.778;9.252;2023-08-31T10:14:04;12.97;;;12.37;;
1122;SDS011;548;48.778;9.252;2023-08-31T10:16:33;13.93;;;13.20;;
1122;SDS011;548;48.778;9.252;2023-08-31T10:19:00;13.13;;;12.50;;
1122;SDS011;548;48.778;9.252;2023-08-31T10:21:28;14.13;;;13.53;;
1122;SDS011;548;48.778;9.252;2023-08-31T10:23:55;14.10;;;13.50;;
1122;SDS011;548;48.778;9.252;2023-08-31T10:26:22;13.83;;;13.10;;
1122;SDS011;548;48.778;9.252;2023-08-31T10:28:50;12.70;;;12.10;;
1122;SDS011;548;48.778;9.252;2023-08-31T10:31:18;13.90;;;13.17;;
1122;SDS011;548;48.778;9.252;2023-08-31T10:33:54;14.90;;;14.10;;
1122;SDS011;548;48.778;9.252;2023-08-31T10:36:22;15.03;;;14.13;;
1122;SDS011;548;48.778;9.252;2023-08-31T10:39:04;13.80;;;13.30;;
1122;SDS011;548;48.778;9.252;2023-08-31T10:41:33;13.27;;;12.50;;
1122;SDS011;548;48.778;9.252;2023-08-31T10:44:01;13.23;;;12.43;;
1122;SDS011;548;48.778;9.252;2023-08-31T10:46:28;12.50;;;11.80;;
1122;SDS011;548;48.778;9.252;2023-08-31T10:48:59;14.40;;;13.40;;
1122;SDS011;548;48.778;9.252;2023-08-31T10:51:29;12.20;;;11.50;;
1122;SDS011;548;48.778;9.252;2023-08-31T10:56:52;13.67;;;13.07;;
1122;SDS011;548;48.778;9.252;2023-08-31T10:59:40;23.73;;;21.80;;
1122;SDS011;548;48.778;9.252;2023-08-31T11:02:09;13.70;;;12.90;;
1122;SDS011;548;48.778;9.252;2023-08-31T11:07:23;14.40;;;13.70;;
1122;SDS011;548;48.778;9.252;2023-08-31T11:09:51;15.67;;;14.87;;
1122;SDS011;548;48.778;9.252;2023-08-31T11:12:21;14.70;;;13.90;;
1122;SDS011;548;48.778;9.252;2023-08-31T11:14:48;13.40;;;12.80;;
1122;SDS011;548;48.778;9.252;2023-08-31T11:17:15;14.00;;;13.00;;
1122;SDS011;548;48.778;9.252;2023-08-31T11:19:42;14.40;;;13.80;;
1122;SDS011;548;48.778;9.252;2023-08-31T11:22:12;15.53;;;14.73;;
1122;SDS011;548;48.778;9.252;2023-08-31T11:24:38;13.53;;;12.93;;
1122;SDS011;548;48.778;9.252;2023-08-31T11:27:07;13.20;;;12.47;;
1122;SDS011;548;48.778;9.252;2023-08-31T11:29:36;13.23;;;12.60;;
1122;SDS011;548;48.778;9.252;2023-08-31T11:32:04;12.77;;;11.97;;
1122;SDS011;548;48.778;9.252;2023-08-31T11:34:31;13.90;;;13.20;;
1122;SDS011;548;48.778;9.252;2023-08-31T11:36:58;13.70;;;12.73;;
1122;SDS011;548;48.778;9.252;2023-08-31T11:39:26;12.97;;;12.47;;
1122;SDS011;548;48.778;9.252;2023-08-31T11:41:54;14.67;;;13.87;;
1122;SDS011;548;48.778;9.252;2023-08-31T11:44:21;14.63;;;14.03;;
1122;SDS011;548;48.778;9.252;2023-08-31T11:46:48;12.47;;;11.97;;
1122;SDS011;548;48.778;9.252;2023-08-31T11:49:16;13.30;;;12.40;;
1122;SDS011;548;48.778;9.252;2023-08-31T11:51:43;13.10;;;12.20;;
1122;SDS011;548;48.778;9.252;2023-08-31T11:54:12;13.07;;;12.57;;
1122;SDS011;548;48.778;9.252;2023-08-31T11:56:40;13.57;;;12.87;;
1122;SDS011;548;48.778;9.252;2023-08-31T11:59:08;13.13;;;12.33;;
1122;SDS011;548;48.778;9.252;2023-08-31T12:01:37;13.80;;;12.90;;
1122;SDS011;548;48.778;9.252;2023-08-31T12:04:12;13.67;;;12.97;;
1122;SDS011;548;48.778;9.252;2023-08-31T12:06:39;14.70;;;13.70;;
1122;SDS011;548;48.778;9.252;2023-08-31T12:09:07;13.80;;;12.97;;
1122;SDS011;548;48.778;9.252;2023-08-31T12:11:34;14.20;;;13.60;;
1122;SDS011;548;48.778;9.252;2023-08-31T12:14:03;14.60;;;13.70;;
1122;SDS011;548;48.778;9.252;2023-08-31T12:16:43;13.83;;;13.23;;
1122;SDS011;548;48.778;9.252;2023-08-31T12:19:10;13.10;;;12.40;;
1122;SDS011;548;48.778;9.252;2023-08-31T12:21:37;12.87;;;12.27;;
1122;SDS011;548;48.778;9.252;2023-08-31T12:24:04;13.83;;;13.13;;
1122;SDS011;548;48.778;9.252;2023-08-31T12:26:32;13.87;;;13.17;;
1122;SDS011;548;48.778;9.252;2023-08-31T12:28:59;14.43;;;13.43;;
1122;SDS011;548;48.778;9.252;2023-08-31T12:31:27;13.00;;;12.40;;
1122;SDS011;548;48.778;9.252;2023-08-31T12:33:53;14.00;;;13.07;;
1122;SDS011;548;48.778;9.252;2023-08-31T12:36:20;14.47;;;13.50;;
1122;SDS011;548;48.778;9.252;2023-08-31T12:38:47;14.13;;;13.00;;
1122;SDS011;548;48.778;9.252;2023-08-31T12:41:13;13.27;;;12.50;;
1122;SDS011;548;48.778;9.252;2023-08-31T12:43:42;13.90;;;13.10;;
1122;SDS011;548;48.778;9.252;2023-08-31T12:46:09;14.23;;;13.33;;
1122;SDS011;548;48.778;9.252;2023-08-31T12:48:39;12.13;;;11.63;;
1122;SDS011;548;48.778;9.252;2023-08-31T12:51:06;13.27;;;12.57;;
1122;SDS011;548;48.778;9.252;2023-08-31T12:53:36;14.50;;;13.57;;
1122;SDS011;548;48.778;9.252;2023-08-31T12:56:04;13.70;;;13.00;;
1122;SDS011;548;48.778;9.252;2023-08-31T12:58:31;13.80;;;12.73;;
1122;SDS011;548;48.778;9.252;2023-08-31T13:00:57;13.73;;;12.80;;
1122;SDS011;548;48.778;9.252;2023-08-31T13:03:24;13.13;;;12.53;;
1122;SDS011;548;48.778;9.252;2023-08-31T13:05:52;13.70;;;13.00;;
1122;SDS011;548;48.778;9.252;2023-08-31T13:08:19;14.67;;;13.53;;
1122;SDS011;548;48.778;9.252;2023-08-31T13:10:50;14.33;;;13.67;;
1122;SDS011;548;48.778;9.252;2023-08-31T13:13:18;12.40;;;11.80;;
1122;SDS011;548;48.778;9.252;2023-08-31T13:15:45;12.40;;;11.90;;
1122;SDS011;548;48.778;9.252;2023-08-31T13:18:12;14.63;;;13.83;;
1122;SDS011;548;48.778;9.252;2023-08-31T13:20:39;13.27;;;12.47;;
1122;SDS011;548;48.778;9.252;2023-08-31T13:23:07;13.70;;;13.20;;
1122;SDS011;548;48.778;9.252;2023-08-31T13:25:34;12.77;;;12.17;;
1122;SDS011;548;48.778;9.252;2023-08-31T13:28:01;12.20;;;11.47;;
1122;SDS011;548;48.778;9.252;2023-08-31T13:30:29;13.40;;;12.70;;
1122;SDS011;548;48.778;9.252;2023-08-31T13:32:55;12.70;;;12.10;;
1122;SDS011;548;48.778;9.252;2023-08-31T13:35:22;13.20;;;12.60;;
1122;SDS011;548;48.778;9.252;2023-08-31T13:37:49;13.30;;;12.53;;
1122;SDS011;548;48.778;9.252;2023-08-31T13:40:17;14.00;;;13.07;;
1122;SDS011;548;48.778;9.252;2023-08-31T13:42:48;15.37;;;14.73;;
1122;SDS011;548;48.778;9.252;2023-08-31T13:45:19;13.57;;;12.97;;
1122;SDS011;548;48.778;9.252;2023-08-31T13:47:46;14.00;;;13.30;;
1122;SDS011;548;48.778;9.252;2023-08-31T13:50:14;13.97;;;13.47;;
1122;SDS011;548;48.778;9.252;2023-08-31T13:52:41;14.27;;;13.60;;
1122;SDS011;548;48.778;9.252;2023-08-31T13:55:07;14.10;;;13.20;;
1122;SDS011;548;48.778;9.252;2023-08-31T13:57:36;14.20;;;13.40;;
1122;SDS011;548;48.778;9.252;2023-08-31T14:00:04;13.67;;;13.07;;
1122;SDS011;548;48.778;9.252;2023-08-31T14:02:34;14.27;;;13.53;;
1122;SDS011;548;48.778;9.252;2023-08-31T14:05:01;14.03;;;13.33;;
1122;SDS011;548;48.778;9.252;2023-08-31T14:07:28;13.30;;;12.70;;
1122;SDS011;548;48.778;9.252;2023-08-31T14:09:55;12.53;;;11.83;;
1122;SDS011;548;48.778;9.252;2023-08-31T14:12:23;13.30;;;12.37;;
1122;SDS011;548;48.778;9.252;2023-08-31T14:14:52;13.57;;;12.77;;
1122;SDS011;548;48.778;9.252;2023-08-31T14:17:19;13.27;;;12.57;;
1122;SDS011;548;48.778;9.252;2023-08-31T14:19:46;12.67;;;12.10;;
1122;SDS011;548;48.778;9.252;2023-08-31T14:22:13;13.60;;;13.00;;
1122;SDS011;548;48.778;9.252;2023-08-31T14:24:40;13.70;;;13.10;;
1122;SDS011;548;48.778;9.252;2023-08-31T14:27:06;12.50;;;11.80;;
1122;SDS011;548;48.778;9.252;2023-08-31T14:29:33;13.33;;;12.37;;
1122;SDS011;548;48.778;9.252;2023-08-31T14:32:02;13.10;;;12.20;;
1122;SDS011;548;48.778;9.252;2023-08-31T14:34:29;12.67;;;12.07;;
1122;SDS011;548;48.778;9.252;2023-08-31T14:36:56;12.73;;;11.93;;
1122;SDS011;548;48.778;9.252;2023-08-31T14:39:25;12.40;;;11.70;;
1122;SDS011;548;48.778;9.252;2023-08-31T14:41:54;12.03;;;11.53;;
1122;SDS011;548;48.778;9.252;2023-08-31T14:44:21;12.70;;;11.90;;
1122;SDS011;548;48.778;9.252;2023-08-31T14:46:48;14.03;;;13.07;;
1122;SDS011;548;48.778;9.252;2023-08-31T14:49:16;13.43;;;12.17;;
1122;SDS011;548;48.778;9.252;2023-08-31T14:51:43;12.40;;;11.90;;
1122;SDS011;548;48.778;9.252;2023-08-31T14:54:10;13.17;;;12.40;;
1122;SDS011;548;48.778;9.252;2023-08-31T14:56:36;14.53;;;13.63;;
1122;SDS011;548;48.778;9.252;2023-08-31T14:59:03;13.07;;;12.03;;
1122;SDS011;548;48.778;9.252;2023-08-31T15:01:30;12.90;;;12.20;;
1122;SDS011;548;48.778;9.252;2023-08-31T15:03:56;13.80;;;13.00;;
1122;SDS011;548;48.778;9.252;2023-08-31T15:06:24;13.80;;;13.07;;
1122;SDS011;548;48.778;9.252;2023-08-31T15:08:51;13.00;;;12.20;;